createdAt,value
2018-12-19T00:05:03.511Z,5.79
2018-12-19T00:10:12.228Z,5.69
2018-12-19T00:15:20.026Z,5.73
2018-12-19T00:20:27.404Z,5.66
2018-12-19T00:25:35.171Z,5.72
2018-12-19T00:30:44.798Z,5.68
2018-12-19T00:35:53.535Z,5.73
2018-12-19T00:41:04.895Z,5.87
2018-12-19T00:46:15.496Z,5.81
2018-12-19T00:51:25.664Z,5.96
2018-12-19T00:56:36.672Z,5.85
2018-12-19T01:01:46.249Z,5.88
2018-12-19T01:06:55.551Z,5.96
2018-12-19T01:12:03.889Z,5.96
2018-12-19T01:17:09.848Z,5.94
2018-12-19T01:22:17.614Z,6.10
2018-12-19T01:27:26.746Z,6.05
2018-12-19T01:32:33.306Z,6.01
2018-12-19T01:37:43.205Z,5.97
2018-12-19T01:42:52.601Z,6.12
2018-12-19T01:48:01.354Z,6.26
2018-12-19T01:53:09.644Z,6.16
2018-12-19T01:58:20.137Z,6.22
2018-12-19T02:03:28.687Z,6.37
2018-12-19T02:08:36.299Z,6.32
2018-12-19T02:13:45.187Z,6.29
2018-12-19T02:18:54.079Z,6.32
2018-12-19T02:24:01.982Z,6.34
2018-12-19T02:29:09.851Z,6.53
2018-12-19T02:34:20.298Z,6.51
2018-12-19T02:39:35.940Z,6.57
2018-12-19T02:44:38.764Z,6.60
2018-12-19T02:49:47.509Z,6.61
2018-12-19T02:54:56.547Z,6.66
2018-12-19T03:00:05.761Z,6.72
2018-12-19T03:05:14.162Z,6.73
2018-12-19T03:10:23.681Z,6.73
2018-12-19T03:15:32.359Z,6.73
2018-12-19T03:20:41.141Z,6.75
2018-12-19T03:25:49.995Z,6.71
2018-12-19T03:31:01.064Z,6.76
2018-12-19T03:36:08.689Z,6.84
2018-12-19T03:41:17.877Z,6.81
2018-12-19T03:46:23.657Z,6.90
2018-12-19T03:51:32.743Z,6.92
2018-12-19T03:56:43.296Z,6.97
2018-12-19T04:01:52.183Z,7.06
2018-12-19T04:06:59.344Z,7.09
2018-12-19T04:12:10.869Z,6.97
2018-12-19T04:17:18.674Z,6.79
2018-12-19T04:22:30.055Z,6.62
2018-12-19T04:27:37.860Z,6.55
2018-12-19T04:32:46.409Z,6.52
2018-12-19T04:37:53.625Z,6.45
2018-12-19T04:43:02.557Z,6.41
2018-12-19T04:48:13.280Z,6.41
2018-12-19T04:53:23.981Z,6.49
2018-12-19T04:58:34.852Z,6.43
2018-12-19T05:03:42.770Z,6.30
2018-12-19T05:08:52.620Z,6.18
2018-12-19T05:15:03.945Z,6.06
2018-12-19T05:20:14.368Z,6.12
2018-12-19T05:25:23.372Z,6.10
2018-12-19T05:30:33.256Z,5.98
2018-12-19T05:35:43.708Z,5.94
2018-12-19T05:40:52.741Z,5.88
2018-12-19T05:46:01.477Z,5.93
2018-12-19T05:51:08.396Z,5.90
2018-12-19T05:56:21.535Z,5.93
2018-12-19T06:01:30.246Z,5.94
2018-12-19T06:06:40.141Z,5.98
2018-12-19T06:11:53.364Z,5.95
2018-12-19T06:17:07.457Z,6.00
2018-12-19T06:22:14.728Z,6.06
2018-12-19T06:27:22.019Z,6.10
2018-12-19T06:32:30.818Z,6.10
2018-12-19T06:37:37.254Z,6.17
2018-12-19T06:42:48.652Z,6.22
2018-12-19T06:47:59.412Z,6.26
2018-12-19T06:53:06.733Z,6.28
2018-12-19T06:58:16.800Z,6.30
2018-12-19T07:03:25.407Z,6.33
2018-12-19T07:08:34.030Z,6.38
2018-12-19T07:13:43.588Z,6.41
2018-12-19T07:18:51.777Z,6.50
2018-12-19T07:23:59.553Z,6.62
2018-12-19T07:29:06.120Z,6.73
2018-12-19T07:34:14.876Z,6.68
2018-12-19T07:39:22.431Z,6.66
2018-12-19T07:44:32.089Z,6.77
2018-12-19T07:49:40.010Z,6.85
2018-12-19T07:54:50.855Z,6.95
2018-12-19T07:59:59.174Z,6.85
2018-12-19T08:05:09.371Z,6.91
2018-12-19T08:10:17.866Z,7.04
2018-12-19T08:15:25.844Z,7.09
2018-12-19T08:20:56.036Z,7.06
2018-12-19T08:26:02.593Z,7.03
2018-12-19T08:31:11.312Z,7.26
2018-12-19T08:36:21.813Z,7.23
2018-12-19T08:41:29.675Z,7.22
2018-12-19T08:46:37.325Z,7.30
2018-12-19T08:51:45.713Z,7.40
2018-12-19T08:56:53.106Z,7.37
2018-12-19T09:02:01.855Z,7.39
2018-12-19T09:07:10.245Z,7.49
2018-12-19T09:12:22.587Z,7.44
2018-12-19T09:17:32.706Z,7.49
2018-12-19T09:22:42.286Z,7.59
2018-12-19T09:27:52.004Z,7.77
2018-12-19T09:33:01.351Z,7.88
2018-12-19T09:38:10.949Z,8.18
2018-12-19T09:43:19.648Z,8.17
2018-12-19T09:48:32.461Z,8.28
2018-12-19T09:53:42.039Z,8.45
2018-12-19T09:58:50.803Z,8.43
2018-12-19T10:03:59.946Z,8.95
2018-12-19T10:09:14.804Z,9.15
2018-12-19T10:14:24.329Z,9.49
2018-12-19T10:19:37.886Z,9.03
2018-12-19T10:25:04.320Z,8.97
2018-12-19T10:30:15.045Z,9.09
2018-12-19T10:35:52.125Z,9.16
2018-12-19T10:41:02.111Z,9.08
2018-12-19T10:46:10.022Z,9.10
2018-12-19T10:51:19.752Z,8.92
2018-12-19T10:56:31.167Z,9.03
2018-12-19T11:01:38.920Z,9.11
2018-12-19T11:06:46.974Z,9.13
2018-12-19T11:12:04.548Z,9.26
2018-12-19T11:17:27.563Z,9.42
2018-12-19T11:22:33.649Z,10.27
2018-12-19T11:27:42.086Z,10.44
2018-12-19T11:32:58.294Z,11.05
2018-12-19T11:38:08.580Z,10.95
2018-12-19T11:43:18.776Z,10.78
2018-12-19T11:48:28.709Z,10.66
2018-12-19T11:53:37.544Z,10.35
2018-12-19T11:58:46.381Z,10.25
2018-12-19T12:03:53.736Z,9.98
2018-12-19T12:08:59.119Z,9.98
2018-12-19T12:14:07.969Z,9.98
2018-12-19T12:19:18.501Z,9.98
2018-12-19T12:24:28.224Z,9.80
2018-12-19T12:29:41.662Z,9.78
2018-12-19T12:34:52.015Z,9.72
2018-12-19T12:39:59.112Z,9.75
2018-12-19T12:45:13.349Z,9.78
2018-12-19T12:50:23.007Z,9.77
2018-12-19T12:55:36.048Z,9.80
2018-12-19T13:00:45.159Z,9.82
2018-12-19T13:05:54.424Z,9.83
2018-12-19T13:11:01.587Z,9.90
2018-12-19T13:16:09.471Z,9.83
2018-12-19T13:21:17.910Z,9.80
2018-12-19T13:26:27.573Z,9.84
2018-12-19T13:31:35.494Z,9.82
2018-12-19T13:36:44.209Z,9.77
2018-12-19T13:41:52.436Z,9.84
2018-12-19T13:47:02.143Z,9.88
2018-12-19T13:52:10.192Z,9.84
2018-12-19T13:57:17.659Z,9.84
2018-12-19T14:02:26.395Z,9.84
2018-12-19T14:07:35.443Z,9.93
2018-12-19T14:12:42.152Z,9.90
2018-12-19T14:17:49.935Z,9.94
2018-12-19T14:22:55.764Z,9.84
2018-12-19T14:28:08.354Z,9.82
2018-12-19T14:33:19.026Z,9.86
2018-12-19T14:38:27.210Z,9.88
2018-12-19T14:43:34.385Z,9.82
2018-12-19T14:48:43.243Z,9.82
2018-12-19T14:53:52.896Z,9.78
2018-12-19T14:59:03.182Z,9.70
2018-12-19T15:04:12.918Z,9.82
2018-12-19T15:09:22.483Z,9.72
2018-12-19T15:14:30.081Z,9.74
2018-12-19T15:19:36.824Z,9.65
2018-12-19T15:24:47.393Z,9.56
2018-12-19T15:29:54.532Z,9.48
2018-12-19T15:35:02.447Z,9.45
2018-12-19T15:40:13.369Z,9.37
2018-12-19T15:45:22.531Z,9.35
2018-12-19T15:50:31.915Z,9.39
2018-12-19T15:55:38.923Z,9.36
2018-12-19T16:00:48.263Z,9.42
2018-12-19T16:05:55.472Z,9.45
2018-12-19T16:11:02.209Z,9.51
2018-12-19T16:16:11.715Z,9.45
2018-12-19T16:21:18.087Z,9.48
2018-12-19T16:26:26.691Z,9.44
2018-12-19T16:31:35.240Z,9.41
2018-12-19T16:36:45.090Z,9.37
2018-12-19T16:41:52.793Z,9.34
2018-12-19T16:47:02.403Z,9.35
2018-12-19T16:52:10.506Z,9.22
2018-12-19T16:57:18.321Z,9.13
2018-12-19T17:02:26.430Z,9.19
2018-12-19T17:07:34.630Z,9.18
2018-12-19T17:12:40.075Z,9.09
2018-12-19T17:17:47.553Z,8.97
2018-12-19T17:22:56.292Z,9.00
2018-12-19T17:28:02.940Z,9.00
2018-12-19T17:33:12.639Z,8.96
2018-12-19T17:38:22.181Z,8.89
2018-12-19T17:43:35.307Z,8.84
2018-12-19T17:48:42.430Z,8.82
2018-12-19T17:53:54.034Z,8.79
2018-12-19T17:58:59.235Z,8.73
2018-12-19T18:04:11.359Z,8.68
2018-12-19T18:09:22.827Z,8.62
2018-12-19T18:14:31.812Z,8.63
2018-12-19T18:19:40.195Z,8.63
2018-12-19T18:24:49.986Z,8.60
2018-12-19T18:29:57.788Z,8.59
2018-12-19T18:35:06.800Z,8.50
2018-12-19T18:40:14.172Z,8.54
2018-12-19T18:45:24.275Z,8.50
2018-12-19T18:50:32.517Z,8.49
2018-12-19T18:55:40.575Z,8.52
2018-12-19T19:00:49.335Z,8.49
2018-12-19T19:05:58.995Z,8.44
2018-12-19T19:11:07.262Z,8.37
2018-12-19T19:16:16.680Z,8.27
2018-12-19T19:21:24.906Z,8.17
2018-12-19T19:26:33.980Z,8.11
2018-12-19T19:31:40.406Z,8.15
2018-12-19T19:36:54.976Z,8.15
2018-12-19T19:42:03.304Z,8.09
2018-12-19T19:47:11.491Z,8.05
2018-12-19T19:52:20.286Z,8.05
2018-12-19T19:57:29.820Z,7.95
2018-12-19T20:02:35.782Z,7.84
2018-12-19T20:07:42.976Z,7.72
2018-12-19T20:12:50.345Z,7.56
2018-12-19T20:17:58.132Z,7.56
2018-12-19T20:23:06.057Z,7.40
2018-12-19T20:28:12.691Z,7.31
2018-12-19T20:33:20.276Z,7.28
2018-12-19T20:38:28.158Z,7.32
2018-12-19T20:43:39.947Z,7.29
2018-12-19T20:48:49.263Z,7.26
2018-12-19T20:53:58.020Z,7.21
2018-12-19T20:59:07.530Z,7.18
2018-12-19T21:04:19.204Z,7.15
2018-12-19T21:09:27.413Z,7.26
2018-12-19T21:14:35.205Z,7.30
2018-12-19T21:19:43.163Z,7.20
2018-12-19T21:24:55.807Z,7.12
2018-12-19T21:30:05.861Z,7.06
2018-12-19T21:35:15.552Z,7.12
2018-12-19T21:40:23.425Z,7.05
2018-12-19T21:45:33.999Z,7.13
2018-12-19T21:51:04.958Z,7.18
2018-12-19T21:56:15.350Z,7.15
2018-12-19T22:01:22.774Z,7.13
2018-12-19T22:06:29.893Z,7.09
2018-12-19T22:11:37.056Z,6.99
2018-12-19T22:17:02.142Z,6.94
2018-12-19T22:22:10.407Z,6.92
2018-12-19T22:27:16.775Z,6.88
2018-12-19T22:32:26.280Z,6.86
2018-12-19T22:37:36.353Z,6.84
2018-12-19T22:42:48.450Z,6.89
2018-12-19T22:47:58.895Z,6.97
2018-12-19T22:53:05.976Z,6.96
2018-12-19T22:58:13.310Z,6.95
2018-12-19T23:03:22.963Z,6.93
2018-12-19T23:08:30.219Z,6.90
2018-12-19T23:13:37.245Z,6.92
2018-12-19T23:18:47.365Z,6.85
2018-12-19T23:24:15.805Z,6.82
2018-12-19T23:29:25.362Z,6.87
2018-12-19T23:34:34.256Z,6.85
2018-12-19T23:39:41.154Z,6.89
2018-12-19T23:44:51.680Z,6.85
2018-12-19T23:49:59.867Z,6.97
2018-12-19T23:55:07.077Z,6.91
